AQB weather

Santa Cruz del Quiche Airport
Santa Cruz del Quiche, Quiche, Guatemala

Public forecast

Using degrees Celsius for public forecast. Weather courtesy of forecast.io.

Closest aviation weather report (METAR) to Santa Cruz del Quiche Airport

Closest report is Quezaltenango Airport, 22.2 nm (41.1 km) WSW. Retrieved 2020/05/28 18:00 UTC (14 minutes ago):

MGQZ 281800Z 14010KT 9999 BKN020 21/12 QFE 773/6

Closest aviation forecast (TAF) to Santa Cruz del Quiche Airport

Closest forecast is La Aurora Airport, 44.4 nm (82.2 km) SE. Retrieved 2020/05/28 18:55 UTC (0 seconds ago):

TAF MGGT 281700Z 2818/2918 02010KT 9999 SCT018 SCT080 TX23/2820Z TN17/29712Z PROB40 TEMPO 2818/2914 VRB03KT 7000 RADZ BKN012 OVC080 BECMG 2900/2902 BKN014 BECMG 2914/2916 04006KT SCT018